ESCF/LPI METAR and TAF weather

Enter ICAO airport designator
Station Type Date Time Source
ESCF METAR 2018/12/10 17:20 UTC NOAA

ESCF 101720Z AUTO 34005KT 310V010 9000 BR OVC008/// 00/M01 Q0998


Station Type Date Time Source
ESCF Decoded METAR 2018/12/10 17:20 UTC NOAA

Linkoping / Malmen, Sweden (ESCF) 58-24N 015-31E 117M
Dec 10, 2018 - 12:20 PM EST / 2018.12.10 1720 UTC
Wind: from the NNW (340 degrees) at 6 MPH (5 KT) (direction variable):0
Visibility: 5 mile(s):0
Sky conditions: overcast
Weather: mist
Temperature: 32 F (0 C)
Windchill: 26 F (-3 C):1
Dew Point: 30 F (-1 C)
Relative Humidity: 92%
Pressure (altimeter): 29.47 in. Hg (0998 hPa)
ob: ESCF 101720Z AUTO 34005KT 310V010 9000 BR OVC008/// 00/M01 Q0998
cycle: 17

Station Type Date Time Source
ESCF TAF UTC NOAA

Error!


Example: see airport list